Time;durP1;ratioP1;P1;durP2;ratioP2;P2;SDS_P1;SDS_P2;PMS_P1;PMS_P2;Temp;Humidity;BMP_temperature;BMP_pressure;BME280_temperature;BME280_humidity;BME280_pressure;Samples;Min_cycle;Max_cycle;Signal;HPM_P1;HPM_P2
2023/08/30 00:00:42;;;;;;;2.47;1.67;;;22.90;58.60;;;;;;4984628;28;88482;-88
2023/08/30 00:03:08;;;;;;;2.83;1.48;;;22.90;58.80;;;;;;4984722;28;87871;-87
2023/08/30 00:05:34;;;;;;;1.95;1.73;;;22.90;58.80;;;;;;4965859;28;87545;-87
2023/08/30 00:07:59;;;;;;;2.03;1.60;;;22.90;58.90;;;;;;4983896;28;88010;-88
2023/08/30 00:10:25;;;;;;;1.88;1.60;;;22.90;58.80;;;;;;4965350;28;90774;-89
2023/08/30 00:12:51;;;;;;;1.85;1.65;;;22.90;58.90;;;;;;4966720;28;91561;-87
2023/08/30 00:15:17;;;;;;;3.03;1.30;;;22.90;59.00;;;;;;4984994;28;87896;-89
2023/08/30 00:17:43;;;;;;;2.25;1.88;;;22.90;59.00;;;;;;4982159;28;89306;-88
2023/08/30 00:20:09;;;;;;;2.45;1.73;;;22.90;59.10;;;;;;4985092;28;87335;-88
2023/08/30 00:22:35;;;;;;;1.85;1.42;;;22.90;59.10;;;;;;4985967;28;87410;-87
2023/08/30 00:25:01;;;;;;;1.98;1.75;;;22.90;59.00;;;;;;4986011;28;87690;-88
2023/08/30 00:27:27;;;;;;;2.60;1.63;;;22.90;59.10;;;;;;4982364;28;86845;-87
2023/08/30 00:29:52;;;;;;;1.60;1.40;;;22.90;59.10;;;;;;4966712;28;90650;-89
2023/08/30 00:32:18;;;;;;;1.90;1.50;;;22.80;58.80;;;;;;4986442;28;87651;-88
2023/08/30 00:34:44;;;;;;;1.50;1.40;;;22.80;59.00;;;;;;4965832;28;88423;-88
2023/08/30 00:37:10;;;;;;;1.40;1.23;;;22.80;59.00;;;;;;4984972;28;87590;-88
2023/08/30 00:39:39;;;;;;;1.50;1.40;;;22.80;58.90;;;;;;4985293;28;87811;-88
2023/08/30 00:42:07;;;;;;;2.30;1.73;;;22.80;59.00;;;;;;4984495;28;87500;-87
2023/08/30 00:44:33;;;;;;;2.10;1.58;;;22.80;59.00;;;;;;4984581;28;88403;-88
2023/08/30 00:47:00;;;;;;;1.88;1.67;;;22.80;58.90;;;;;;4985936;28;87618;-87
2023/08/30 00:49:25;;;;;;;1.83;1.60;;;22.80;58.80;;;;;;4966254;28;89783;-88
2023/08/30 00:51:52;;;;;;;1.95;1.38;;;22.80;58.70;;;;;;4967494;28;90494;-88
2023/08/30 00:54:18;;;;;;;2.47;1.65;;;22.80;58.80;;;;;;4985500;28;87060;-88
2023/08/30 00:56:44;;;;;;;2.15;1.70;;;22.80;58.80;;;;;;4982491;28;87990;-88
2023/08/30 00:59:10;;;;;;;1.95;1.50;;;22.80;59.00;;;;;;4983026;28;88667;-89
2023/08/30 01:01:38;;;;;;;1.73;1.42;;;22.80;58.90;;;;;;4984259;28;89375;-87
2023/08/30 01:04:04;;;;;;;2.27;1.57;;;22.80;58.60;;;;;;4984255;28;87853;-87
2023/08/30 01:06:30;;;;;;;1.60;1.40;;;22.80;58.70;;;;;;4965336;28;88096;-88
2023/08/30 01:08:56;;;;;;;2.20;1.60;;;22.80;58.70;;;;;;4981644;28;88845;-88
2023/08/30 01:11:43;;;;;;;1.42;1.30;;;22.80;58.80;;;;;;4965486;28;90011;-88
2023/08/30 01:14:22;;;;;;;1.90;1.55;;;22.80;58.80;;;;;;4983412;28;87152;-87
2023/08/30 01:16:48;;;;;;;2.92;1.58;;;22.80;58.80;;;;;;4965760;28;89429;-89
2023/08/30 01:19:19;;;;;;;1.52;1.42;;;22.80;58.90;;;;;;4983011;28;89954;-88
2023/08/30 01:21:48;;;;;;;1.73;1.50;;;22.80;58.70;;;;;;4984286;28;88388;-87
2023/08/30 01:24:44;;;;;;;1.80;1.48;;;22.80;58.70;;;;;;4984372;28;88328;-87
2023/08/30 01:27:12;;;;;;;1.38;1.27;;;22.80;58.70;;;;;;4941525;28;89816;-88
2023/08/30 01:29:42;;;;;;;2.15;1.70;;;22.70;59.00;;;;;;4964935;28;88512;-87
2023/08/30 01:32:09;;;;;;;1.80;1.58;;;22.80;59.20;;;;;;4983742;28;89256;-87
2023/08/30 01:34:37;;;;;;;1.70;1.40;;;22.80;58.80;;;;;;4965441;28;88260;-88
2023/08/30 01:37:05;;;;;;;1.65;1.40;;;22.80;58.80;;;;;;4965754;28;88587;-88
2023/08/30 01:39:32;;;;;;;2.13;1.80;;;22.80;58.70;;;;;;4984948;28;88867;-88
2023/08/30 01:42:00;;;;;;;1.52;1.40;;;22.80;58.90;;;;;;4984992;28;87977;-87
2023/08/30 01:44:28;;;;;;;1.80;1.50;;;22.80;58.80;;;;;;4984680;28;87303;-86
2023/08/30 01:46:54;;;;;;;2.05;1.42;;;22.70;58.70;;;;;;4982250;28;89340;-88
2023/08/30 01:49:21;;;;;;;1.50;1.30;;;22.70;59.00;;;;;;4965635;28;91172;-88
2023/08/30 01:51:47;;;;;;;1.48;1.35;;;22.70;58.80;;;;;;4985351;28;88868;-88
2023/08/30 01:54:17;;;;;;;1.40;1.30;;;22.80;58.70;;;;;;4973924;28;87726;-88
2023/08/30 01:56:43;;;;;;;2.10;1.70;;;22.80;58.60;;;;;;4968437;28;89267;-88
2023/08/30 01:59:08;;;;;;;1.63;1.40;;;22.80;58.70;;;;;;4983124;28;87833;-87
2023/08/30 02:01:34;;;;;;;1.60;1.40;;;22.80;58.70;;;;;;4984219;28;87971;-88
2023/08/30 02:04:00;;;;;;;2.28;1.30;;;22.80;58.80;;;;;;4985356;28;87586;-88
2023/08/30 02:06:53;;;;;;;2.63;1.40;;;22.80;58.90;;;;;;4983440;28;86854;-88
2023/08/30 02:09:26;;;;;;;1.83;1.52;;;22.70;58.80;;;;;;4982268;28;90211;-87
2023/08/30 02:11:53;;;;;;;1.80;1.40;;;22.70;58.70;;;;;;4965173;28;89052;-87
2023/08/30 02:14:20;;;;;;;1.92;1.65;;;22.70;58.80;;;;;;4964809;28;88535;-87
2023/08/30 02:16:47;;;;;;;2.08;1.40;;;22.70;58.70;;;;;;4983061;28;87422;-87
2023/08/30 02:19:16;;;;;;;2.28;1.77;;;22.70;58.70;;;;;;4984523;28;87643;-88
2023/08/30 02:21:42;;;;;;;;;;;22.70;58.80;;;;;;4985814;28;92630;-88
2023/08/30 02:24:08;;;;;;;2.25;1.73;;;22.70;58.70;;;;;;4989010;28;94977;-87
2023/08/30 02:26:34;;;;;;;2.55;1.65;;;22.70;58.70;;;;;;4987236;28;87120;-88
2023/08/30 02:28:59;;;;;;;1.60;1.40;;;22.70;58.70;;;;;;4984883;28;90044;-89
2023/08/30 02:31:25;;;;;;;2.13;1.40;;;22.70;58.90;;;;;;4985764;28;89130;-87
2023/08/30 02:33:51;;;;;;;1.77;1.50;;;22.70;58.80;;;;;;4986870;28;87249;-87
2023/08/30 02:36:16;;;;;;;1.65;1.35;;;22.70;58.80;;;;;;4967513;28;87677;-88
2023/08/30 02:38:42;;;;;;;1.70;1.58;;;22.70;58.80;;;;;;4968017;28;91875;-89
2023/08/30 02:41:07;;;;;;;1.75;1.38;;;22.70;58.90;;;;;;4967027;28;90719;-88
2023/08/30 02:43:33;;;;;;;1.70;1.60;;;22.60;58.80;;;;;;4968032;28;88803;-89
2023/08/30 02:46:01;;;;;;;1.90;1.55;;;22.60;58.80;;;;;;4984714;28;89925;-88
2023/08/30 02:48:26;;;;;;;3.28;1.75;;;22.70;58.80;;;;;;4985686;28;87932;-88
2023/08/30 02:50:52;;;;;;;1.63;1.52;;;22.60;59.00;;;;;;4968286;28;90079;-89
2023/08/30 02:53:18;;;;;;;2.75;1.95;;;22.60;58.80;;;;;;4968207;28;87112;-89
2023/08/30 02:55:43;;;;;;;4.03;1.77;;;22.70;58.90;;;;;;4987148;28;87555;-89
2023/08/30 02:58:09;;;;;;;1.70;1.60;;;22.60;58.70;;;;;;4968340;28;89248;-87
2023/08/30 03:00:35;;;;;;;1.73;1.63;;;22.60;59.00;;;;;;4966830;28;88819;-88
2023/08/30 03:03:00;;;;;;;1.70;1.55;;;22.60;58.90;;;;;;4966886;28;88916;-87
2023/08/30 03:05:26;;;;;;;1.60;1.50;;;22.60;59.00;;;;;;4985305;28;88182;-89
2023/08/30 03:07:53;;;;;;;2.15;1.60;;;22.60;59.10;;;;;;4986043;28;88630;-87
2023/08/30 03:10:19;;;;;;;2.03;1.33;;;22.60;59.10;;;;;;4986991;28;88223;-89
2023/08/30 03:12:44;;;;;;;2.67;1.90;;;22.60;59.00;;;;;;4968206;28;88008;-89
2023/08/30 03:15:10;;;;;;;1.58;1.45;;;22.60;59.10;;;;;;4985768;28;87265;-88
2023/08/30 03:17:36;;;;;;;2.17;1.75;;;22.60;59.20;;;;;;4985961;28;87999;-88
2023/08/30 03:20:03;;;;;;;1.65;1.45;;;22.60;58.80;;;;;;4967148;28;90344;-87
2023/08/30 03:22:30;;;;;;;1.80;1.33;;;22.60;58.80;;;;;;4986250;28;87457;-86
2023/08/30 03:24:56;;;;;;;3.08;1.42;;;22.60;59.00;;;;;;4967214;28;89744;-87
2023/08/30 03:27:22;;;;;;;2.10;1.42;;;22.60;58.90;;;;;;4983885;28;89817;-87
2023/08/30 03:29:47;;;;;;;1.63;1.38;;;22.60;58.90;;;;;;4966917;28;91905;-89
2023/08/30 03:32:20;;;;;;;1.52;1.38;;;22.60;58.90;;;;;;4985144;28;87909;-88
2023/08/30 03:34:45;;;;;;;1.63;1.23;;;22.60;58.80;;;;;;4966333;28;89811;-89
2023/08/30 03:37:13;;;;;;;1.58;1.38;;;22.60;58.90;;;;;;4967922;28;90435;-88
2023/08/30 03:39:39;;;;;;;1.90;1.70;;;22.60;59.00;;;;;;4986932;28;91225;-87
2023/08/30 03:42:05;;;;;;;1.58;1.48;;;22.60;58.90;;;;;;4966729;28;87950;-86
2023/08/30 03:44:31;;;;;;;2.17;1.63;;;22.60;58.90;;;;;;4983235;28;89682;-87
2023/08/30 03:46:56;;;;;;;1.45;1.35;;;22.60;58.90;;;;;;4984314;28;91616;-88
2023/08/30 03:49:22;;;;;;;1.35;1.25;;;22.60;58.90;;;;;;4985925;28;88054;-87
2023/08/30 03:51:48;;;;;;;1.75;1.40;;;22.60;58.90;;;;;;4984746;28;88151;-88
2023/08/30 03:54:16;;;;;;;2.03;1.75;;;22.60;58.80;;;;;;4951917;28;87804;-87
2023/08/30 03:56:42;;;;;;;2.75;1.58;;;22.60;58.90;;;;;;4976998;28;88035;-89
2023/08/30 03:59:08;;;;;;;1.40;1.30;;;22.60;58.80;;;;;;4966341;28;90361;-87
2023/08/30 04:01:34;;;;;;;2.03;1.70;;;22.60;58.90;;;;;;4984392;28;87565;-87
2023/08/30 04:03:59;;;;;;;1.58;1.48;;;22.60;59.10;;;;;;4968402;28;89107;-88
2023/08/30 04:06:25;;;;;;;2.22;1.60;;;22.60;59.00;;;;;;4985740;28;87406;-88
2023/08/30 04:08:51;;;;;;;1.60;1.50;;;22.60;58.90;;;;;;4985895;28;88082;-88
2023/08/30 04:11:16;;;;;;;1.80;1.52;;;22.60;59.20;;;;;;4984233;28;87744;-88
2023/08/30 04:13:42;;;;;;;2.22;1.52;;;22.60;59.00;;;;;;4966376;28;89664;-88
2023/08/30 04:16:08;;;;;;;1.85;1.63;;;22.60;59.00;;;;;;4985329;28;89859;-87
2023/08/30 04:18:33;;;;;;;1.65;1.42;;;22.60;59.10;;;;;;4966789;28;90053;-88
2023/08/30 04:21:02;;;;;;;2.10;1.70;;;22.60;59.20;;;;;;4982985;28;87486;-88
2023/08/30 04:23:30;;;;;;;2.05;1.60;;;22.60;58.90;;;;;;4966590;28;88501;-87
2023/08/30 04:25:56;;;;;;;2.47;1.40;;;22.60;59.00;;;;;;4964407;28;90921;-87
2023/08/30 04:28:21;;;;;;;1.88;1.65;;;22.60;58.90;;;;;;4965006;28;88219;-88
2023/08/30 04:30:47;;;;;;;1.90;1.45;;;22.60;58.90;;;;;;4949767;28;87649;-88
2023/08/30 04:33:13;;;;;;;1.52;1.42;;;22.60;58.90;;;;;;4966064;28;87015;-88
2023/08/30 04:35:39;;;;;;;2.72;1.80;;;22.60;58.80;;;;;;4965820;28;87822;-88
2023/08/30 04:38:05;;;;;;;1.70;1.60;;;22.60;58.80;;;;;;4947382;28;90448;-87
2023/08/30 04:40:32;;;;;;;1.65;1.52;;;22.60;58.80;;;;;;4964249;28;88126;-88
2023/08/30 04:43:00;;;;;;;1.70;1.60;;;22.60;58.80;;;;;;4964607;28;87336;-88
2023/08/30 04:45:27;;;;;;;2.00;1.80;;;22.60;58.80;;;;;;4964496;28;88541;-87
2023/08/30 04:47:53;;;;;;;1.70;1.60;;;22.60;58.70;;;;;;4964430;28;87562;-87
2023/08/30 04:50:18;;;;;;;2.00;1.67;;;22.60;58.90;;;;;;4947772;28;87145;-87
2023/08/30 04:52:44;;;;;;;2.50;1.75;;;22.60;58.80;;;;;;4966268;28;87732;-88
2023/08/30 04:55:10;;;;;;;1.83;1.70;;;22.60;58.60;;;;;;4966420;28;87338;-88
2023/08/30 04:57:35;;;;;;;2.30;1.67;;;22.60;58.90;;;;;;4948167;28;89428;-88
2023/08/30 05:00:04;;;;;;;1.60;1.45;;;22.60;58.70;;;;;;4964150;28;87874;-88
2023/08/30 05:02:30;;;;;;;1.95;1.65;;;22.60;58.80;;;;;;4946007;28;87575;-88
2023/08/30 05:04:56;;;;;;;2.05;1.85;;;22.60;58.60;;;;;;4946298;28;90597;-87
2023/08/30 05:07:21;;;;;;;2.13;1.70;;;22.60;58.60;;;;;;4965797;28;88894;-87
2023/08/30 05:09:47;;;;;;;2.05;1.85;;;22.60;58.40;;;;;;4984486;28;87511;-87
2023/08/30 05:12:13;;;;;;;2.45;1.77;;;22.60;58.60;;;;;;4983782;28;92903;-87
2023/08/30 05:14:40;;;;;;;1.80;1.60;;;22.60;58.70;;;;;;4983885;28;91204;-88
2023/08/30 05:17:06;;;;;;;2.15;1.70;;;22.60;58.60;;;;;;4983523;28;87471;-88
2023/08/30 05:19:32;;;;;;;2.45;1.88;;;22.60;58.60;;;;;;4984919;28;87714;-87
2023/08/30 05:21:57;;;;;;;1.60;1.50;;;22.60;58.50;;;;;;4983586;28;86945;-87
2023/08/30 05:24:23;;;;;;;3.40;2.10;;;22.60;58.50;;;;;;4964559;28;92573;-88
2023/08/30 05:26:49;;;;;;;1.65;1.55;;;22.60;58.60;;;;;;4984634;28;88037;-88
2023/08/30 05:29:15;;;;;;;2.08;1.73;;;22.60;58.60;;;;;;4983902;28;89065;-88
2023/08/30 05:31:41;;;;;;;1.67;1.58;;;22.60;58.60;;;;;;4967124;28;89449;-87
2023/08/30 05:34:07;;;;;;;2.05;1.80;;;22.60;58.60;;;;;;4966545;28;90637;-88
2023/08/30 05:36:32;;;;;;;1.88;1.77;;;22.60;58.60;;;;;;4983781;28;87903;-88
2023/08/30 05:38:58;;;;;;;2.05;1.73;;;22.60;58.40;;;;;;4984441;28;87868;-88
2023/08/30 05:41:24;;;;;;;2.08;1.73;;;22.60;58.40;;;;;;4985107;28;87628;-87
2023/08/30 05:43:51;;;;;;;1.70;1.50;;;22.60;58.40;;;;;;4965976;28;89093;-88
2023/08/30 05:46:17;;;;;;;1.70;1.60;;;22.60;58.20;;;;;;4966078;28;89412;-87
2023/08/30 05:48:43;;;;;;;3.22;1.80;;;22.60;58.30;;;;;;4965501;28;88682;-88
2023/08/30 05:51:08;;;;;;;1.85;1.70;;;22.60;58.40;;;;;;4966403;28;89121;-87
2023/08/30 05:53:34;;;;;;;2.40;1.48;;;22.60;58.50;;;;;;4982287;28;92591;-88
2023/08/30 05:56:00;;;;;;;1.88;1.67;;;22.60;58.40;;;;;;4968840;28;90417;-87
2023/08/30 05:58:25;;;;;;;1.70;1.55;;;22.60;58.50;;;;;;4968986;28;88021;-87
2023/08/30 06:00:51;;;;;;;2.25;1.92;;;22.60;58.40;;;;;;4989136;28;86905;-88
2023/08/30 06:03:17;;;;;;;2.75;1.90;;;22.60;58.30;;;;;;4987391;28;88331;-87
2023/08/30 06:05:42;;;;;;;2.50;1.80;;;22.60;58.40;;;;;;4968342;28;90510;-88
2023/08/30 06:08:09;;;;;;;1.75;1.60;;;22.60;58.40;;;;;;4986582;28;87738;-87
2023/08/30 06:10:38;;;;;;;2.40;1.75;;;22.60;58.50;;;;;;4969248;28;89716;-88
2023/08/30 06:13:04;;;;;;;1.95;1.75;;;22.60;58.30;;;;;;4987623;28;88139;-88
2023/08/30 06:15:30;;;;;;;1.60;1.50;;;22.60;58.30;;;;;;4968436;28;90432;-88
2023/08/30 06:17:55;;;;;;;1.60;1.40;;;22.60;58.20;;;;;;4969147;28;88628;-88
2023/08/30 06:20:21;;;;;;;1.60;1.50;;;22.60;58.10;;;;;;4968737;28;89587;-88
2023/08/30 06:22:46;;;;;;;1.88;1.73;;;22.60;58.30;;;;;;4985599;28;87364;-87
2023/08/30 06:25:12;;;;;;;1.85;1.65;;;22.60;58.40;;;;;;4985461;28;90112;-88
2023/08/30 06:27:43;;;;;;;1.90;1.65;;;22.60;58.40;;;;;;4967879;28;88170;-88
2023/08/30 06:30:10;;;;;;;1.80;1.50;;;22.60;58.40;;;;;;4968109;28;88476;-86
2023/08/30 06:32:36;;;;;;;1.63;1.52;;;22.60;59.00;;;;;;4968324;28;89764;-87
2023/08/30 06:35:02;;;;;;;2.10;1.48;;;22.60;58.40;;;;;;4985115;28;87647;-88
2023/08/30 06:37:28;;;;;;;1.58;1.48;;;22.60;58.40;;;;;;4967576;28;87554;-87
2023/08/30 06:39:53;;;;;;;2.17;1.98;;;22.60;58.40;;;;;;4988225;28;88110;-88
2023/08/30 06:42:19;;;;;;;2.42;1.73;;;22.60;58.40;;;;;;4986489;28;88602;-87
2023/08/30 06:44:44;;;;;;;1.73;1.63;;;22.60;58.50;;;;;;4968613;28;91076;-88
2023/08/30 06:47:10;;;;;;;2.15;1.80;;;22.60;58.40;;;;;;4987134;28;87036;-87
2023/08/30 06:49:36;;;;;;;1.85;1.63;;;22.60;58.20;;;;;;4987498;28;88077;-88
2023/08/30 06:52:03;;;;;;;2.22;1.75;;;22.60;58.20;;;;;;4985830;28;89882;-88
2023/08/30 06:54:32;;;;;;;1.90;1.70;;;22.60;58.10;;;;;;4987666;28;87632;-89
2023/08/30 06:57:01;;;;;;;3.50;1.70;;;22.70;58.10;;;;;;4985501;28;87654;-86
2023/08/30 06:59:27;;;;;;;1.75;1.58;;;22.70;58.00;;;;;;4985057;28;86937;-88
2023/08/30 07:01:53;;;;;;;1.80;1.70;;;22.80;57.80;;;;;;4985671;28;87750;-89
2023/08/30 07:04:19;;;;;;;1.73;1.50;;;22.80;58.00;;;;;;4967430;28;90375;-88
2023/08/30 07:06:44;;;;;;;1.85;1.67;;;22.80;57.90;;;;;;4986958;28;88110;-88
2023/08/30 07:09:11;;;;;;;2.40;1.70;;;22.70;58.00;;;;;;4987671;28;87286;-88
2023/08/30 07:11:37;;;;;;;2.90;1.63;;;22.80;57.30;;;;;;4968147;28;90874;-90
2023/08/30 07:14:03;;;;;;;2.85;1.50;;;22.80;56.90;;;;;;4971632;28;94617;-90
2023/08/30 07:16:31;;;;;;;3.30;1.92;;;22.80;57.70;;;;;;4978108;28;88455;-91
2023/08/30 07:18:57;;;;;;;4.00;1.98;;;22.80;57.60;;;;;;4977031;28;87482;-89
2023/08/30 07:21:23;;;;;;;1.80;1.60;;;22.80;57.50;;;;;;4979661;28;91549;-93
2023/08/30 07:23:49;;;;;;;3.50;1.70;;;22.80;57.50;;;;;;4973360;28;89010;-89
2023/08/30 07:26:15;;;;;;;2.92;1.80;;;22.80;57.70;;;;;;4987095;28;87763;-90
2023/08/30 07:28:41;;;;;;;9.82;2.53;;;22.80;57.40;;;;;;4988737;28;90107;-90
2023/08/30 07:31:06;;;;;;;6.93;2.40;;;22.80;57.50;;;;;;4975837;28;91519;-89
2023/08/30 07:33:32;;;;;;;3.47;2.22;;;22.80;57.00;;;;;;4972078;28;91050;-89
2023/08/30 07:35:58;;;;;;;4.22;2.33;;;22.80;56.30;;;;;;4975037;28;87995;-89
2023/08/30 07:38:24;;;;;;;2.58;2.22;;;22.70;56.00;;;;;;4985695;28;87548;-88
2023/08/30 07:40:53;;;;;;;3.63;2.25;;;22.70;56.50;;;;;;4985773;28;88620;-87
2023/08/30 07:43:19;;;;;;;;;;;22.80;56.60;;;;;;4985004;28;90597;-90
2023/08/30 07:45:45;;;;;;;5.72;2.20;;;22.70;56.60;;;;;;4988274;28;87837;-89
2023/08/30 07:48:11;;;;;;;9.70;2.53;;;22.70;56.40;;;;;;4967541;28;88301;-89
2023/08/30 07:50:37;;;;;;;3.75;2.00;;;22.70;57.10;;;;;;4983274;28;90692;-91
2023/08/30 07:53:02;;;;;;;2.70;2.15;;;22.70;57.10;;;;;;4985325;28;89884;-90
2023/08/30 07:55:28;;;;;;;5.00;2.28;;;22.80;57.10;;;;;;4984700;28;89574;-89
2023/08/30 07:57:54;;;;;;;4.28;2.20;;;22.70;56.90;;;;;;4966537;28;88099;-89
2023/08/30 08:00:19;;;;;;;5.45;2.50;;;22.80;56.90;;;;;;4966840;28;90646;-89
2023/08/30 08:02:45;;;;;;;4.78;2.28;;;22.80;57.10;;;;;;4985995;28;88224;-90
2023/08/30 08:05:11;;;;;;;5.57;2.30;;;22.90;56.20;;;;;;4968185;28;87730;-91
2023/08/30 08:07:40;;;;;;;3.00;1.88;;;22.80;56.70;;;;;;4988166;28;88437;-89
2023/08/30 08:10:09;;;;;;;;;;;22.80;56.90;;;;;;4968734;28;88769;-90
2023/08/30 08:12:35;;;;;;;10.45;2.85;;;22.80;56.80;;;;;;4968006;28;88616;-90
2023/08/30 08:15:01;;;;;;;6.47;2.13;;;22.80;56.90;;;;;;4966796;28;87863;-90
2023/08/30 08:17:26;;;;;;;6.35;2.03;;;22.80;57.00;;;;;;4967480;28;89686;-91
2023/08/30 08:19:52;;;;;;;2.97;1.77;;;22.80;56.90;;;;;;4967849;28;91831;-89
2023/08/30 08:22:17;;;;;;;6.32;2.20;;;22.80;56.80;;;;;;4985652;28;88031;-91
2023/08/30 08:24:46;;;;;;;7.15;2.10;;;22.80;57.30;;;;;;4982846;28;87771;-90
2023/08/30 08:27:12;;;;;;;5.97;2.00;;;22.90;56.90;;;;;;4982473;28;87716;-89
2023/08/30 08:29:38;;;;;;;4.88;2.10;;;22.80;57.10;;;;;;4966523;28;90390;-90
2023/08/30 08:32:04;;;;;;;3.92;2.35;;;22.80;57.10;;;;;;4967218;28;89007;-90
2023/08/30 08:34:30;;;;;;;5.43;1.90;;;22.80;56.90;;;;;;4984691;28;87343;-89
2023/08/30 08:36:56;;;;;;;3.05;1.65;;;22.80;57.10;;;;;;4967999;28;89414;-89
2023/08/30 08:39:21;;;;;;;2.85;2.05;;;22.80;57.10;;;;;;4966630;28;89579;-90
2023/08/30 08:41:48;;;;;;;4.93;1.90;;;22.80;57.00;;;;;;4985431;28;87894;-90
2023/08/30 08:44:14;;;;;;;4.45;1.75;;;22.80;57.00;;;;;;4983370;28;88920;-90
2023/08/30 08:46:41;;;;;;;5.68;2.17;;;22.80;57.00;;;;;;4966486;28;89202;-89
2023/08/30 08:49:16;;;;;;;3.65;1.98;;;22.70;57.20;;;;;;4985731;28;87908;-88
2023/08/30 08:51:43;;;;;;;6.18;2.08;;;22.70;57.20;;;;;;4966225;28;94705;-90
2023/08/30 08:54:10;;;;;;;5.05;2.10;;;22.70;57.30;;;;;;4967866;28;88156;-91
2023/08/30 08:56:36;;;;;;;3.28;2.15;;;22.70;57.30;;;;;;4971831;28;88734;-90
2023/08/30 08:59:02;;;;;;;3.60;1.85;;;22.70;57.30;;;;;;4987425;28;90871;-90
2023/08/30 09:01:28;;;;;;;4.78;2.17;;;22.80;57.30;;;;;;4990258;28;92887;-90
2023/08/30 09:03:54;;;;;;;8.23;2.50;;;22.80;57.40;;;;;;4972296;28;87766;-91
2023/08/30 09:06:21;;;;;;;4.22;2.08;;;22.70;57.40;;;;;;4987146;28;88617;-90
2023/08/30 09:08:47;;;;;;;17.38;5.10;;;22.70;57.50;;;;;;4971508;28;90668;-90
2023/08/30 09:11:13;;;;;;;31.58;8.68;;;22.70;57.70;;;;;;4970224;28;90837;-90
2023/08/30 09:13:38;;;;;;;32.75;8.27;;;22.80;57.70;;;;;;4989432;28;87215;-89
2023/08/30 09:16:14;;;;;;;30.50;7.85;;;22.70;57.80;;;;;;4989445;28;87245;-91
2023/08/30 09:18:41;;;;;;;34.00;8.80;;;22.70;57.90;;;;;;4969214;28;91925;-89
2023/08/30 09:21:08;;;;;;;31.27;8.73;;;22.70;58.00;;;;;;4950114;28;90048;-91
2023/08/30 09:23:34;;;;;;;34.67;8.52;;;22.70;58.10;;;;;;4970843;28;87258;-91
2023/08/30 09:26:00;;;;;;;25.67;8.00;;;22.80;58.20;;;;;;4956775;28;90213;-91
2023/08/30 09:28:26;;;;;;;21.77;7.80;;;22.80;58.20;;;;;;4972661;28;87804;-92
2023/08/30 09:30:53;;;;;;;25.63;6.85;;;22.70;58.30;;;;;;4972718;28;89232;-91
2023/08/30 09:33:22;;;;;;;25.45;6.68;;;22.80;58.60;;;;;;4987137;28;88293;-89
2023/08/30 09:35:47;;;;;;;;;;;22.80;58.50;;;;;;4971602;28;89660;-90
2023/08/30 09:38:20;;;;;;;16.95;5.90;;;22.80;58.10;;;;;;4970654;28;89766;-90
2023/08/30 09:40:46;;;;;;;24.70;7.43;;;22.80;58.30;;;;;;4966793;28;90844;-89
2023/08/30 09:43:13;;;;;;;25.08;7.18;;;22.80;58.40;;;;;;4969335;28;87091;-90
2023/08/30 09:45:39;;;;;;;21.88;7.20;;;22.80;58.30;;;;;;4965651;28;91056;-91
2023/08/30 09:48:06;;;;;;;15.43;6.07;;;22.80;58.40;;;;;;4969047;28;88404;-91
2023/08/30 09:50:36;;;;;;;21.60;5.68;;;22.80;58.50;;;;;;4951409;28;88955;-90
2023/08/30 09:53:09;;;;;;;16.02;5.00;;;22.70;59.00;;;;;;4952687;28;87237;-90
2023/08/30 09:55:35;;;;;;;22.17;7.28;;;22.70;59.20;;;;;;4971333;28;88444;-89
2023/08/30 09:58:04;;;;;;;19.77;6.95;;;22.70;58.70;;;;;;4969537;28;91532;-88
2023/08/30 10:00:36;;;;;;;15.73;5.05;;;22.70;59.30;;;;;;4985980;28;90499;-89
2023/08/30 10:03:03;;;;;;;13.63;4.50;;;22.70;60.20;;;;;;4988960;28;87472;-89
2023/08/30 10:05:29;;;;;;;14.88;4.70;;;22.70;64.20;;;;;;4970139;28;88654;-89
2023/08/30 10:07:56;;;;;;;9.93;3.50;;;22.70;64.90;;;;;;4988735;28;86989;-89
2023/08/30 10:10:23;;;;;;;16.83;5.28;;;22.60;63.90;;;;;;4971226;28;88956;-89
2023/08/30 10:12:49;;;;;;;11.65;3.72;;;22.60;62.60;;;;;;4974175;28;87812;-90
2023/08/30 10:15:15;;;;;;;12.48;3.28;;;22.60;62.70;;;;;;4969593;28;88748;-89
2023/08/30 10:17:46;;;;;;;7.72;3.63;;;22.60;63.00;;;;;;4970203;28;89276;-89
2023/08/30 10:20:12;;;;;;;5.50;2.83;;;22.70;62.70;;;;;;4969180;28;90230;-90
2023/08/30 10:22:40;;;;;;;7.63;3.25;;;22.70;62.60;;;;;;4970102;28;88363;-91
2023/08/30 10:25:16;;;;;;;9.95;3.13;;;22.80;62.80;;;;;;4972736;28;89267;-90
2023/08/30 10:27:46;;;;;;;5.55;2.85;;;22.70;62.20;;;;;;4973401;28;90933;-90
2023/08/30 10:30:13;;;;;;;9.35;2.50;;;22.60;62.10;;;;;;4974493;28;88505;-91
2023/08/30 10:32:47;;;;;;;6.75;2.58;;;22.60;62.10;;;;;;4973219;28;87389;-92
2023/08/30 10:35:15;;;;;;;4.30;2.20;;;22.60;62.20;;;;;;4990900;28;87401;-90
2023/08/30 10:37:41;;;;;;;6.63;3.45;;;22.60;62.20;;;;;;4989072;28;90525;-89
2023/08/30 10:40:08;;;;;;;8.35;3.20;;;22.60;62.30;;;;;;4974733;28;90158;-90
2023/08/30 10:42:34;;;;;;;7.20;3.13;;;22.70;62.50;;;;;;4991142;28;87674;-90
2023/08/30 10:45:01;;;;;;;5.38;2.53;;;22.70;62.30;;;;;;4976426;28;88903;-91
2023/08/30 10:47:31;;;;;;;7.90;2.97;;;22.70;62.00;;;;;;4990511;28;91489;-92
2023/08/30 10:50:03;;;;;;;6.47;2.95;;;22.80;62.10;;;;;;4975293;28;91369;-90
2023/08/30 10:52:29;;;;;;;6.90;2.38;;;22.80;62.10;;;;;;4974338;28;87011;-92
2023/08/30 10:55:11;;;;;;;6.13;2.38;;;22.80;62.80;;;;;;4976557;28;88675;-90
2023/08/30 10:57:37;;;;;;;6.15;2.85;;;22.70;63.80;;;;;;4991599;28;88777;-90
2023/08/30 11:00:17;;;;;;;5.43;2.65;;;22.80;63.20;;;;;;4992792;28;89268;-93
2023/08/30 11:02:51;;;;;;;8.95;2.60;;;22.80;62.90;;;;;;4996053;28;86844;-90
2023/08/30 11:05:18;;;;;;;4.68;2.53;;;22.80;62.90;;;;;;4988271;28;88366;-90
2023/08/30 11:07:45;;;;;;;8.73;2.80;;;22.80;62.90;;;;;;4976228;28;90517;-90
2023/08/30 11:10:11;;;;;;;7.95;2.70;;;22.80;62.80;;;;;;4975653;28;89386;-93
2023/08/30 11:12:39;;;;;;;5.60;2.25;;;22.80;63.00;;;;;;4974684;28;88458;-93
2023/08/30 11:15:08;;;;;;;11.77;3.42;;;22.80;63.30;;;;;;4989964;28;88730;-89
2023/08/30 11:17:34;;;;;;;13.82;4.78;;;22.80;64.90;;;;;;4991595;28;89963;-90
2023/08/30 11:20:16;;;;;;;25.15;9.27;;;22.90;65.40;;;;;;4988864;28;89800;-90
2023/08/30 11:22:43;;;;;;;14.35;4.70;;;22.90;65.20;;;;;;4970969;28;87972;-88
2023/08/30 11:25:10;;;;;;;14.40;5.40;;;22.90;65.40;;;;;;4971845;28;87302;-88
2023/08/30 11:27:38;;;;;;;11.38;4.32;;;23.00;65.40;;;;;;4950972;28;89367;-87
2023/08/30 11:30:05;;;;;;;13.25;4.80;;;23.00;65.00;;;;;;4963784;28;90590;-90
2023/08/30 11:32:44;;;;;;;14.00;5.35;;;23.00;64.40;;;;;;4972848;28;87206;-89
2023/08/30 11:35:10;;;;;;;11.65;4.25;;;22.90;64.70;;;;;;4989502;28;87472;-89
2023/08/30 11:37:36;;;;;;;9.30;4.47;;;22.90;65.20;;;;;;4971404;28;91258;-90
2023/08/30 11:40:05;;;;;;;11.05;3.90;;;22.80;65.40;;;;;;4974108;28;91810;-90
2023/08/30 11:42:32;;;;;;;;;;;22.80;65.60;;;;;;4971117;28;87690;-91
2023/08/30 11:44:59;;;;;;;13.15;3.78;;;22.80;65.60;;;;;;4974516;28;88338;-91
2023/08/30 11:47:26;;;;;;;10.25;4.15;;;22.80;65.30;;;;;;4986874;28;89484;-91
2023/08/30 11:49:56;;;;;;;7.07;3.80;;;22.80;65.40;;;;;;4966470;28;90645;-90
2023/08/30 11:52:23;;;;;;;12.23;3.80;;;22.80;65.50;;;;;;4966277;28;87181;-90
2023/08/30 11:54:49;;;;;;;10.07;3.47;;;22.70;65.70;;;;;;4988728;28;86831;-91
2023/08/30 11:57:16;;;;;;;8.93;3.85;;;22.70;65.80;;;;;;4968242;28;90599;-91
2023/08/30 11:59:42;;;;;;;8.75;3.38;;;22.70;65.80;;;;;;4986065;28;88387;-90
2023/08/30 12:02:08;;;;;;;9.27;3.72;;;22.70;65.70;;;;;;4968094;28;88787;-92
2023/08/30 12:04:41;;;;;;;6.60;3.05;;;22.70;65.60;;;;;;4968215;28;90263;-92
2023/08/30 12:07:07;;;;;;;6.78;2.90;;;22.60;65.90;;;;;;4969289;28;90796;-92
2023/08/30 12:09:34;;;;;;;8.13;3.28;;;22.60;65.80;;;;;;4969372;28;90005;-91
2023/08/30 12:12:12;;;;;;;8.57;3.33;;;22.70;66.00;;;;;;4970216;28;87545;-91
2023/08/30 12:14:38;;;;;;;6.55;3.05;;;22.60;65.60;;;;;;4985773;28;89310;-92
2023/08/30 12:17:05;;;;;;;7.88;3.25;;;22.70;66.20;;;;;;4968380;28;90004;-91
2023/08/30 12:19:34;;;;;;;5.97;2.95;;;22.70;65.50;;;;;;4988774;28;88102;-92
2023/08/30 12:22:07;;;;;;;5.22;2.55;;;22.60;65.80;;;;;;4986231;28;87144;-91
2023/08/30 12:24:46;;;;;;;6.00;2.47;;;22.70;65.50;;;;;;4986517;28;88026;-92
2023/08/30 12:27:13;;;;;;;5.72;3.03;;;22.60;65.80;;;;;;4985500;28;88856;-91
2023/08/30 12:29:39;;;;;;;4.93;2.80;;;22.60;65.70;;;;;;4987608;28;88364;-90
2023/08/30 12:32:06;;;;;;;7.63;2.45;;;22.70;65.80;;;;;;4969202;28;86960;-92
2023/08/30 12:34:32;;;;;;;6.40;3.25;;;22.60;65.50;;;;;;4986310;28;87493;-91
2023/08/30 12:36:58;;;;;;;7.72;2.85;;;22.60;65.70;;;;;;4969153;28;90563;-91
2023/08/30 12:39:24;;;;;;;3.67;2.35;;;22.60;65.50;;;;;;4986375;28;87845;-91
2023/08/30 12:41:50;;;;;;;4.85;2.58;;;22.60;65.70;;;;;;4985611;28;87701;-92
2023/08/30 12:44:16;;;;;;;4.72;2.75;;;22.60;65.70;;;;;;4968784;28;88662;-90
2023/08/30 12:46:41;;;;;;;4.72;2.47;;;22.60;65.80;;;;;;4987506;28;88670;-91